Time;durP1;ratioP1;P1;durP2;ratioP2;P2;SDS_P1;SDS_P2;PMS_P1;PMS_P2;Temp;Humidity;BMP_temperature;BMP_pressure;BME280_temperature;BME280_humidity;BME280_pressure;Samples;Min_cycle;Max_cycle;Signal;HPM_P1;HPM_P2
2024/04/22 00:00:28;;;;;;;15.50;10.03;;;;;20.50;101124.00;;;;2213326;26;20253;-60
2024/04/22 00:01:29;;;;;;;12.80;9.13;;;;;20.50;101470.00;;;;2231205;26;20899;-63
2024/04/22 00:02:29;;;;;;;13.50;9.27;;;;;20.50;101463.00;;;;2197115;26;20252;-60
2024/04/22 00:03:29;;;;;;;15.07;10.13;;;;;19.60;101467.00;;;;2190696;26;20257;-60
2024/04/22 00:04:30;;;;;;;17.07;9.77;;;;;20.40;101258.00;;;;2210984;26;20306;-60
2024/04/22 00:05:30;;;;;;;13.80;9.60;;;;;20.40;101312.00;;;;2225177;26;20845;-60
2024/04/22 00:06:31;;;;;;;15.70;10.37;;;;;20.40;101158.00;;;;2208729;26;23972;-60
2024/04/22 00:07:31;;;;;;;14.43;9.17;;;;;20.50;101065.00;;;;2211587;26;20298;-59
2024/04/22 00:08:31;;;;;;;13.37;9.13;;;;;20.40;101408.00;;;;2213815;26;20259;-60
2024/04/22 00:09:32;;;;;;;15.17;9.80;;;;;20.40;101242.00;;;;2217008;26;20333;-60
2024/04/22 00:10:32;;;;;;;14.70;10.27;;;;;20.40;101447.00;;;;2197352;26;20265;-60
2024/04/22 00:11:32;;;;;;;14.63;8.97;;;;;20.40;101184.00;;;;2205105;26;20728;-60
2024/04/22 00:12:33;;;;;;;17.80;10.00;;;;;20.40;101181.00;;;;2215700;26;20812;-60
2024/04/22 00:13:33;;;;;;;16.13;9.93;;;;;19.40;101428.00;;;;2208999;26;20355;-60
2024/04/22 00:14:34;;;;;;;17.37;8.77;;;;;20.40;101202.00;;;;2222039;26;20295;-60
2024/04/22 00:15:34;;;;;;;14.77;9.50;;;;;20.20;101405.00;;;;2215421;26;20290;-59
2024/04/22 00:16:35;;;;;;;13.93;9.67;;;;;20.40;101259.00;;;;2210733;26;20256;-60
2024/04/22 00:17:35;;;;;;;13.60;9.10;;;;;20.40;101351.00;;;;2209287;26;20666;-60
2024/04/22 00:18:35;;;;;;;13.80;8.67;;;;;20.40;101303.00;;;;2198218;26;20287;-59
2024/04/22 00:19:36;;;;;;;13.53;8.37;;;;;20.40;101119.00;;;;2206853;26;20257;-60
2024/04/22 00:20:39;;;;;;;15.10;9.07;;;;;20.40;101432.00;;;;2226140;26;20309;-60
2024/04/22 00:21:40;;;;;;;16.00;8.90;;;;;20.40;101293.00;;;;2210304;26;20263;-60
2024/04/22 00:22:40;;;;;;;14.57;9.00;;;;;20.40;101435.00;;;;2201341;26;20249;-60
2024/04/22 00:23:40;;;;;;;12.03;7.80;;;;;20.40;101231.00;;;;2196343;26;21149;-60
2024/04/22 00:24:41;;;;;;;15.70;8.60;;;;;20.40;101175.00;;;;2214625;26;20693;-60
2024/04/22 00:25:41;;;;;;;13.43;8.40;;;;;20.40;101285.00;;;;2228114;26;20263;-60
2024/04/22 00:26:42;;;;;;;14.60;8.90;;;;;20.30;101120.00;;;;2215221;26;20259;-60
2024/04/22 00:27:42;;;;;;;13.70;7.90;;;;;20.40;101408.00;;;;2201823;26;20726;-60
2024/04/22 00:28:43;;;;;;;15.40;9.00;;;;;20.40;101406.00;;;;2194198;26;20333;-59
2024/04/22 00:29:43;;;;;;;13.37;8.93;;;;;20.40;101235.00;;;;2208975;26;20240;-59
2024/04/22 00:30:43;;;;;;;12.03;8.10;;;;;20.40;101225.00;;;;2221871;26;20247;-60
2024/04/22 00:31:44;;;;;;;12.07;7.63;;;;;20.40;101407.00;;;;2211491;26;20773;-59
2024/04/22 00:32:45;;;;;;;11.53;7.30;;;;;20.40;101137.00;;;;2230800;26;20291;-59
2024/04/22 00:33:45;;;;;;;11.50;7.50;;;;;20.40;101145.00;;;;2215357;26;20296;-60
2024/04/22 00:34:46;;;;;;;13.20;7.33;;;;;19.60;101413.00;;;;2220419;26;20485;-60
2024/04/22 00:35:56;;;;;;;12.53;8.30;;;;;20.40;101427.00;;;;2219813;26;20263;-60
2024/04/22 00:36:57;;;;;;;13.00;8.63;;;;;20.40;101405.00;;;;2211834;26;20543;-60
2024/04/22 00:37:58;;;;;;;12.67;7.87;;;;;20.30;101134.00;;;;2204864;26;20252;-60
2024/04/22 00:38:58;;;;;;;11.13;7.35;;;;;20.30;101426.00;;;;2216980;26;20260;-60
2024/04/22 00:39:59;;;;;;;10.93;8.00;;;;;20.30;101399.00;;;;2230975;26;20293;-60
2024/04/22 00:40:59;;;;;;;11.60;6.53;;;;;20.00;101440.00;;;;2209991;26;20644;-60
2024/04/22 00:42:00;;;;;;;15.07;8.30;;;;;20.30;101409.00;;;;2211399;26;20251;-60
2024/04/22 00:43:00;;;;;;;11.03;7.33;;;;;20.30;101373.00;;;;2219096;26;20283;-60
2024/04/22 00:44:01;;;;;;;11.77;8.10;;;;;20.30;101434.00;;;;2208613;26;20273;-60
2024/04/22 00:45:01;;;;;;;11.50;6.93;;;;;19.80;101427.00;;;;2196577;26;20257;-60
2024/04/22 00:46:02;;;;;;;12.97;7.83;;;;;20.30;101264.00;;;;2198337;26;20262;-60
2024/04/22 00:47:02;;;;;;;12.20;6.90;;;;;20.30;101397.00;;;;2214234;26;20251;-60
2024/04/22 00:48:03;;;;;;;14.30;7.93;;;;;20.30;101288.00;;;;2221348;26;20255;-60
2024/04/22 00:49:03;;;;;;;10.30;6.93;;;;;20.30;101242.00;;;;2222297;26;20252;-59
2024/04/22 00:50:04;;;;;;;9.37;6.50;;;;;20.30;101303.00;;;;2222931;26;21240;-60
2024/04/22 00:51:04;;;;;;;11.52;7.53;;;;;20.30;101412.00;;;;2222295;26;20259;-59
2024/04/22 00:52:05;;;;;;;17.00;7.77;;;;;20.30;101429.00;;;;2186970;26;20359;-60
2024/04/22 00:53:05;;;;;;;12.10;7.60;;;;;20.30;101132.00;;;;2229719;26;20250;-59
2024/04/22 00:54:07;;;;;;;13.77;7.60;;;;;20.30;101409.00;;;;2226829;26;20338;-60
2024/04/22 00:55:08;;;;;;;11.82;7.53;;;;;20.30;101413.00;;;;2210148;26;20268;-60
2024/04/22 00:56:08;;;;;;;12.43;7.10;;;;;20.30;101218.00;;;;2226364;26;20262;-60
2024/04/22 00:57:08;;;;;;;10.10;6.67;;;;;20.30;101428.00;;;;2211868;26;20306;-60
2024/04/22 00:58:09;;;;;;;11.60;7.37;;;;;20.30;101240.00;;;;2222358;26;20252;-60
2024/04/22 00:59:09;;;;;;;10.30;6.80;;;;;20.30;101214.00;;;;2224570;26;20259;-60
2024/04/22 01:00:11;;;;;;;11.23;6.80;;;;;20.30;101395.00;;;;2206149;26;20289;-59
2024/04/22 01:01:12;;;;;;;9.15;7.05;;;;;20.30;101401.00;;;;2196571;26;20273;-60
2024/04/22 01:02:12;;;;;;;10.33;6.27;;;;;20.30;101061.00;;;;2196561;26;20298;-60
2024/04/22 01:03:13;;;;;;;9.50;6.60;;;;;20.30;101379.00;;;;2222925;26;20981;-60
2024/04/22 01:04:13;;;;;;;9.80;6.70;;;;;20.30;101164.00;;;;2222078;26;20300;-60
2024/04/22 01:05:14;;;;;;;10.57;6.60;;;;;20.30;101196.00;;;;2206874;26;20252;-60
2024/04/22 01:06:14;;;;;;;10.20;6.67;;;;;20.30;101393.00;;;;2221904;26;20342;-60
2024/04/22 01:07:15;;;;;;;10.07;5.87;;;;;20.30;101125.00;;;;2210658;26;20754;-60
2024/04/22 01:08:15;;;;;;;10.80;6.47;;;;;20.30;101398.00;;;;2218212;26;20356;-60
2024/04/22 01:09:16;;;;;;;9.47;5.93;;;;;19.40;101414.00;;;;2216422;26;20353;-60
2024/04/22 01:10:16;;;;;;;8.70;6.40;;;;;20.20;101167.00;;;;2222706;26;20259;-60
2024/04/22 01:11:16;;;;;;;11.53;7.17;;;;;20.30;101396.00;;;;2221882;26;20359;-60
2024/04/22 01:12:17;;;;;;;10.87;7.20;;;;;20.20;101417.00;;;;2196139;26;20310;-60
2024/04/22 01:13:18;;;;;;;12.40;6.77;;;;;20.20;101415.00;;;;2197991;26;20327;-60
2024/04/22 01:14:18;;;;;;;10.27;6.55;;;;;20.20;101116.00;;;;2221302;26;20305;-60
2024/04/22 01:15:19;;;;;;;7.50;5.23;;;;;20.20;101081.00;;;;2210870;26;20264;-60
2024/04/22 01:16:19;;;;;;;9.30;5.70;;;;;20.20;101424.00;;;;2219363;26;20254;-60
2024/04/22 01:17:20;;;;;;;10.37;5.63;;;;;20.30;101042.00;;;;2212872;26;21233;-60
2024/04/22 01:18:20;;;;;;;11.13;6.23;;;;;20.20;101416.00;;;;2208605;26;20295;-60
2024/04/22 01:19:21;;;;;;;9.20;6.23;;;;;19.60;101397.00;;;;2209606;26;20267;-60
2024/04/22 01:20:21;;;;;;;10.47;5.47;;;;;20.10;101404.00;;;;2197966;26;20295;-60
2024/04/22 01:21:30;;;;;;;11.00;5.53;;;;;20.20;101399.00;;;;2187902;26;20484;-65
2024/04/22 01:22:31;;;;;;;9.20;5.78;;;;;20.20;101400.00;;;;2214301;26;20259;-60
2024/04/22 01:23:31;;;;;;;8.17;5.70;;;;;20.20;101173.00;;;;2197066;26;20260;-60
2024/04/22 01:24:31;;;;;;;11.23;6.20;;;;;20.20;101173.00;;;;2192100;26;20258;-60
2024/04/22 01:25:32;;;;;;;9.63;6.20;;;;;20.20;101404.00;;;;2197998;26;20265;-59
2024/04/22 01:26:32;;;;;;;8.03;5.30;;;;;20.10;101406.00;;;;2180261;26;20363;-60
2024/04/22 01:27:33;;;;;;;8.97;5.83;;;;;20.20;101374.00;;;;2212923;26;20290;-60
2024/04/22 01:28:33;;;;;;;9.40;5.60;;;;;20.20;101113.00;;;;2217407;26;20251;-59
2024/04/22 01:29:34;;;;;;;10.00;6.57;;;;;20.20;101325.00;;;;2207753;26;20260;-60
2024/04/22 01:30:35;;;;;;;8.90;5.10;;;;;20.20;101370.00;;;;2213604;26;20298;-60
2024/04/22 01:31:35;;;;;;;13.10;6.20;;;;;20.20;101201.00;;;;2213455;26;20255;-60
2024/04/22 01:32:35;;;;;;;7.90;5.60;;;;;20.20;101371.00;;;;2221462;26;20301;-60
2024/04/22 01:33:36;;;;;;;9.03;5.53;;;;;20.20;101106.00;;;;2217803;26;20247;-60
2024/04/22 01:34:36;;;;;;;8.70;5.40;;;;;20.00;101107.00;;;;2220536;26;20608;-60
2024/04/22 01:35:37;;;;;;;9.67;5.37;;;;;20.20;101156.00;;;;2219200;26;20298;-60
2024/04/22 01:36:41;;;;;;;8.93;5.17;;;;;20.00;101400.00;;;;2209971;26;20255;-60
2024/04/22 01:37:41;;;;;;;7.85;5.10;;;;;20.20;101213.00;;;;2201561;26;20405;-60
2024/04/22 01:38:41;;;;;;;9.20;5.30;;;;;20.20;101048.00;;;;2204418;26;20265;-60
2024/04/22 01:39:42;;;;;;;9.30;5.70;;;;;20.20;101238.00;;;;2216275;26;20359;-60
2024/04/22 01:40:42;;;;;;;8.50;4.70;;;;;20.20;101382.00;;;;2195028;26;20707;-60
2024/04/22 01:41:43;;;;;;;8.10;5.30;;;;;20.10;101393.00;;;;2183298;27;20272;-60
2024/04/22 01:42:43;;;;;;;8.03;4.90;;;;;20.20;101104.00;;;;2220853;26;20310;-60
2024/04/22 01:43:43;;;;;;;9.33;5.87;;;;;20.20;101347.00;;;;2230551;26;21168;-60
2024/04/22 01:44:44;;;;;;;8.47;5.00;;;;;20.20;101279.00;;;;2221578;26;20752;-60
2024/04/22 01:45:44;;;;;;;8.47;4.60;;;;;19.90;101415.00;;;;2214076;26;20251;-59
2024/04/22 01:46:45;;;;;;;8.53;5.50;;;;;20.10;101407.00;;;;2219978;26;21109;-60
2024/04/22 01:47:45;;;;;;;11.83;6.03;;;;;20.10;101377.00;;;;2224862;26;20357;-60
2024/04/22 01:48:46;;;;;;;8.17;4.87;;;;;20.10;101110.00;;;;2231267;26;20255;-60
2024/04/22 01:49:46;;;;;;;8.80;5.20;;;;;19.70;101208.00;;;;2220392;26;20251;-60
2024/04/22 01:50:47;;;;;;;8.97;5.57;;;;;20.10;101371.00;;;;2211702;26;20321;-59
2024/04/22 01:51:47;;;;;;;7.20;5.10;;;;;20.10;101380.00;;;;2216629;26;20292;-60
2024/04/22 01:52:48;;;;;;;8.10;5.77;;;;;20.10;101103.00;;;;2225957;26;20251;-60
2024/04/22 01:53:48;;;;;;;7.03;4.87;;;;;20.10;101381.00;;;;2212176;26;20298;-59
2024/04/22 01:54:49;;;;;;;8.80;5.33;;;;;20.10;101135.00;;;;2208880;26;20253;-60
2024/04/22 01:55:49;;;;;;;6.30;4.60;;;;;20.10;101372.00;;;;2210996;26;20323;-60
2024/04/22 01:56:49;;;;;;;7.57;4.70;;;;;20.10;101374.00;;;;2202210;26;20357;-60
2024/04/22 01:57:50;;;;;;;7.70;5.40;;;;;20.10;100988.00;;;;2207416;26;20278;-60
2024/04/22 01:58:51;;;;;;;7.13;4.97;;;;;20.10;101209.00;;;;2201250;26;20257;-60
2024/04/22 01:59:52;;;;;;;6.97;4.72;;;;;20.10;101410.00;;;;2219027;26;20350;-60
2024/04/22 02:00:52;;;;;;;8.93;5.50;;;;;20.10;101242.00;;;;2221913;26;20255;-60
2024/04/22 02:01:53;;;;;;;8.07;5.00;;;;;20.10;101240.00;;;;2196343;26;20327;-60
2024/04/22 02:02:53;;;;;;;6.70;4.30;;;;;20.10;101379.00;;;;2219082;26;20261;-60
2024/04/22 02:03:53;;;;;;;7.27;4.50;;;;;19.90;101363.00;;;;2212827;26;20290;-60
2024/04/22 02:04:54;;;;;;;7.53;4.90;;;;;20.10;101379.00;;;;2215302;26;20333;-60
2024/04/22 02:05:54;;;;;;;6.60;4.00;;;;;20.10;101386.00;;;;2209136;26;20261;-60
2024/04/22 02:06:55;;;;;;;7.03;4.57;;;;;20.10;101024.00;;;;2208654;26;20260;-60
2024/04/22 02:07:55;;;;;;;6.83;4.80;;;;;20.10;101316.00;;;;2223775;26;20290;-61
2024/04/22 02:08:56;;;;;;;5.53;4.13;;;;;20.00;101397.00;;;;2222196;26;20317;-60
2024/04/22 02:09:56;;;;;;;7.93;4.87;;;;;20.10;101232.00;;;;2208264;26;20256;-60
2024/04/22 02:10:56;;;;;;;5.97;4.03;;;;;20.10;101386.00;;;;2225236;26;20259;-60
2024/04/22 02:11:57;;;;;;;6.70;4.43;;;;;20.10;101373.00;;;;2212654;26;20259;-66
2024/04/22 02:12:57;;;;;;;6.33;4.40;;;;;20.10;101382.00;;;;2229309;26;20323;-60
2024/04/22 02:13:58;;;;;;;5.77;3.97;;;;;20.10;101381.00;;;;2219530;26;20255;-63
2024/04/22 02:14:58;;;;;;;7.43;4.40;;;;;20.00;101404.00;;;;2222280;26;20345;-60
2024/04/22 02:15:59;;;;;;;6.73;4.27;;;;;20.10;101150.00;;;;2207028;26;20694;-60
2024/04/22 02:16:59;;;;;;;7.00;4.10;;;;;20.00;101389.00;;;;2209337;26;20259;-61
2024/04/22 02:18:00;;;;;;;8.60;4.70;;;;;20.10;101385.00;;;;2227929;26;20274;-60
2024/04/22 02:19:00;;;;;;;6.30;4.20;;;;;20.10;101386.00;;;;2219677;26;20345;-60
2024/04/22 02:20:01;;;;;;;8.23;4.70;;;;;20.00;101144.00;;;;2223628;26;20519;-60
2024/04/22 02:21:01;;;;;;;6.20;3.87;;;;;20.10;101428.00;;;;2224608;26;20320;-60
2024/04/22 02:22:02;;;;;;;6.93;4.33;;;;;20.10;101310.00;;;;2203633;26;20263;-61
2024/04/22 02:23:02;;;;;;;6.43;4.03;;;;;20.10;101336.00;;;;2227821;26;20259;-60
2024/04/22 02:24:03;;;;;;;7.70;4.17;;;;;20.00;101305.00;;;;2218500;26;20255;-60
2024/04/22 02:25:04;;;;;;;6.03;4.30;;;;;20.00;101377.00;;;;2222845;26;20339;-60
2024/04/22 02:26:04;;;;;;;6.73;4.07;;;;;20.00;101361.00;;;;2220726;26;20298;-60
2024/04/22 02:27:04;;;;;;;6.00;3.90;;;;;20.00;101369.00;;;;2212586;26;20267;-60
2024/04/22 02:28:05;;;;;;;6.00;3.80;;;;;20.00;101379.00;;;;2218950;26;20282;-60
2024/04/22 02:29:05;;;;;;;6.87;3.83;;;;;20.00;101312.00;;;;2222782;26;20259;-60
2024/04/22 02:30:06;;;;;;;5.77;4.00;;;;;20.00;101203.00;;;;2217921;26;20255;-60
2024/04/22 02:31:07;;;;;;;6.30;3.60;;;;;20.00;101304.00;;;;2220543;26;20290;-60
2024/04/22 02:32:07;;;;;;;6.00;3.43;;;;;20.00;101265.00;;;;2196508;26;20486;-60
2024/04/22 02:33:08;;;;;;;7.23;4.33;;;;;20.00;101416.00;;;;2206426;26;20295;-60
2024/04/22 02:34:08;;;;;;;6.27;3.70;;;;;20.00;101361.00;;;;2211173;26;20327;-60
2024/04/22 02:35:09;;;;;;;4.93;3.13;;;;;20.00;101209.00;;;;2217395;26;20298;-60
2024/04/22 02:36:09;;;;;;;6.20;4.10;;;;;20.00;101236.00;;;;2222006;26;20267;-60
2024/04/22 02:37:10;;;;;;;6.20;3.90;;;;;20.00;101330.00;;;;2211588;26;20271;-61
2024/04/22 02:38:10;;;;;;;6.17;3.70;;;;;20.00;100914.00;;;;2220342;26;20747;-60
2024/04/22 02:39:10;;;;;;;5.20;3.73;;;;;20.00;101386.00;;;;2222184;26;20251;-61
2024/04/22 02:40:11;;;;;;;7.70;4.30;;;;;20.00;101369.00;;;;2215867;26;20263;-61
2024/04/22 02:41:11;;;;;;;5.83;3.77;;;;;20.00;101406.00;;;;2224770;26;20259;-60
2024/04/22 02:42:12;;;;;;;5.50;3.80;;;;;20.00;101208.00;;;;2215674;26;20255;-60
2024/04/22 02:43:12;;;;;;;6.17;3.60;;;;;20.00;101362.00;;;;2225992;26;20292;-59
2024/04/22 02:44:13;;;;;;;5.70;3.23;;;;;20.00;101091.00;;;;2208536;26;20252;-60
2024/04/22 02:45:13;;;;;;;5.60;3.77;;;;;20.00;101369.00;;;;2207789;26;20244;-60
2024/04/22 02:46:13;;;;;;;6.20;3.60;;;;;20.00;101383.00;;;;2227006;26;20250;-59
2024/04/22 02:47:14;;;;;;;5.77;3.47;;;;;20.00;101364.00;;;;2213588;26;20721;-60
2024/04/22 02:48:14;;;;;;;5.97;3.53;;;;;20.00;101187.00;;;;2203630;26;20256;-60
2024/04/22 02:49:15;;;;;;;4.73;3.60;;;;;20.00;101088.00;;;;2212542;26;20257;-60
2024/04/22 02:50:15;;;;;;;4.60;2.90;;;;;20.00;101290.00;;;;2219400;26;20337;-60
2024/04/22 02:51:16;;;;;;;5.53;3.27;;;;;19.60;101215.00;;;;2231593;26;20250;-60
2024/04/22 02:52:16;;;;;;;5.97;3.60;;;;;19.90;101357.00;;;;2215396;26;20255;-60
2024/04/22 02:53:17;;;;;;;6.10;3.70;;;;;20.00;101198.00;;;;2223376;26;20880;-60
2024/04/22 02:54:25;;;;;;;5.10;3.40;;;;;20.00;101351.00;;;;2224660;26;20251;-60
2024/04/22 02:55:28;;;;;;;5.70;3.63;;;;;20.00;101368.00;;;;2222524;26;20878;-60
2024/04/22 02:56:29;;;;;;;5.10;3.30;;;;;20.00;101187.00;;;;2219868;26;20262;-60
2024/04/22 02:57:29;;;;;;;5.80;3.60;;;;;19.90;101076.00;;;;2209142;26;20263;-60
2024/04/22 02:58:29;;;;;;;6.00;3.50;;;;;19.90;101058.00;;;;2220338;26;20251;-60
2024/04/22 02:59:30;;;;;;;5.47;3.50;;;;;19.90;101192.00;;;;2207301;26;20267;-60
2024/04/22 03:00:30;;;;;;;5.60;3.53;;;;;19.60;101378.00;;;;2221603;26;20255;-60
2024/04/22 03:01:34;;;;;;;5.70;3.27;;;;;19.90;101249.00;;;;2200826;26;20318;-60
2024/04/22 03:02:34;;;;;;;6.10;3.83;;;;;19.90;101046.00;;;;2220149;26;20252;-61
2024/04/22 03:03:35;;;;;;;5.60;3.30;;;;;19.90;101371.00;;;;2209032;26;20253;-60
2024/04/22 03:04:35;;;;;;;5.47;3.50;;;;;19.90;101367.00;;;;2219889;26;20251;-60
2024/04/22 03:05:36;;;;;;;5.20;3.17;;;;;19.90;101079.00;;;;2224395;26;20243;-60
2024/04/22 03:06:36;;;;;;;5.45;3.03;;;;;19.90;101057.00;;;;2192870;26;20249;-60
2024/04/22 03:07:37;;;;;;;4.40;3.10;;;;;19.90;101310.00;;;;2229519;26;20297;-60
2024/04/22 03:08:37;;;;;;;4.93;3.47;;;;;19.80;101361.00;;;;2207374;26;20248;-60
2024/04/22 03:09:42;;;;;;;5.50;3.97;;;;;18.90;101382.00;;;;2196502;26;20249;-60
2024/04/22 03:10:43;;;;;;;5.43;3.35;;;;;19.90;101135.00;;;;2208698;26;20583;-60
2024/04/22 03:11:43;;;;;;;4.97;3.20;;;;;18.60;101332.00;;;;2207952;26;20317;-60
2024/04/22 03:12:44;;;;;;;4.40;2.70;;;;;19.80;101357.00;;;;2232442;26;20289;-59
2024/04/22 03:13:44;;;;;;;5.00;3.23;;;;;19.70;101379.00;;;;2208752;26;20268;-60
2024/04/22 03:14:45;;;;;;;6.10;3.07;;;;;19.90;101222.00;;;;2221280;26;20255;-60
2024/04/22 03:15:45;;;;;;;5.63;3.50;;;;;19.10;101343.00;;;;2229426;26;20414;-60
2024/04/22 03:16:45;;;;;;;5.87;3.30;;;;;19.90;101164.00;;;;2196992;26;20257;-60
2024/04/22 03:17:46;;;;;;;5.50;3.50;;;;;19.90;101362.00;;;;2185628;26;20297;-60
2024/04/22 03:18:46;;;;;;;5.13;2.80;;;;;19.90;101287.00;;;;2210697;26;20308;-61
2024/04/22 03:19:47;;;;;;;3.90;2.77;;;;;19.90;101106.00;;;;2222058;26;21305;-60
2024/04/22 03:20:47;;;;;;;6.40;3.73;;;;;19.90;101359.00;;;;2228578;26;21061;-60
2024/04/22 03:21:48;;;;;;;4.40;2.87;;;;;19.90;101373.00;;;;2214021;26;20695;-59
2024/04/22 03:22:48;;;;;;;4.30;2.70;;;;;19.90;101337.00;;;;2241796;26;20739;-61
2024/04/22 03:23:49;;;;;;;4.20;2.67;;;;;19.90;101351.00;;;;2227944;26;20250;-60
2024/04/22 03:24:49;;;;;;;3.90;2.50;;;;;19.90;101355.00;;;;2222031;26;20294;-60
2024/04/22 03:25:50;;;;;;;4.90;3.00;;;;;19.90;101330.00;;;;2207380;26;20291;-60
2024/04/22 03:26:50;;;;;;;6.37;3.30;;;;;19.90;101183.00;;;;2185298;26;20761;-60
2024/04/22 03:27:51;;;;;;;5.10;2.83;;;;;19.90;101342.00;;;;2206263;26;20248;-60
2024/04/22 03:28:51;;;;;;;6.37;3.10;;;;;19.90;101364.00;;;;2215532;26;20304;-60
2024/04/22 03:29:51;;;;;;;4.33;2.83;;;;;19.90;100983.00;;;;2221767;26;20267;-60
2024/04/22 03:30:52;;;;;;;4.27;2.80;;;;;19.90;101344.00;;;;2207529;26;20248;-60
2024/04/22 03:31:52;;;;;;;3.60;2.43;;;;;19.80;101063.00;;;;2198828;26;20260;-60
2024/04/22 03:32:53;;;;;;;4.97;2.90;;;;;19.90;101332.00;;;;2220201;26;20255;-60
2024/04/22 03:33:53;;;;;;;3.60;2.43;;;;;19.90;101077.00;;;;2231033;26;20278;-60
2024/04/22 03:34:53;;;;;;;4.60;3.30;;;;;19.90;101156.00;;;;2222100;26;20252;-60
2024/04/22 03:36:00;;;;;;;5.83;3.37;;;;;19.90;101297.00;;;;2222632;26;20259;-61
2024/04/22 03:37:01;;;;;;;4.97;2.70;;;;;19.70;101335.00;;;;2218585;26;20255;-60
2024/04/22 03:38:01;;;;;;;4.97;3.47;;;;;19.90;101029.00;;;;2220771;26;20255;-60
2024/04/22 03:39:01;;;;;;;3.87;2.83;;;;;19.00;101355.00;;;;2222287;26;20366;-60
2024/04/22 03:40:02;;;;;;;5.13;3.00;;;;;19.90;101328.00;;;;2224357;26;20332;-60
2024/04/22 03:41:02;;;;;;;4.40;2.70;;;;;19.80;101148.00;;;;2224052;26;20286;-60
2024/04/22 03:42:03;;;;;;;4.37;2.83;;;;;19.80;101044.00;;;;2209464;26;20263;-60
2024/04/22 03:43:03;;;;;;;4.60;2.70;;;;;19.90;101327.00;;;;2223280;26;20266;-60
2024/04/22 03:44:04;;;;;;;5.30;3.07;;;;;19.80;101303.00;;;;2220953;26;20294;-60
2024/04/22 03:45:05;;;;;;;5.10;2.80;;;;;19.80;101147.00;;;;2216259;26;20709;-60
2024/04/22 03:50:02;;;;;;;3.92;2.35;;;;;19.80;101324.00;;;;2213361;26;20300;-60
2024/04/22 03:51:03;;;;;;;4.33;2.60;;;;;19.80;101327.00;;;;2212093;26;20266;-61
2024/04/22 03:52:03;;;;;;;4.33;2.80;;;;;19.80;100936.00;;;;2200000;26;20255;-60
2024/04/22 03:53:04;;;;;;;4.30;2.67;;;;;19.80;101297.00;;;;2219489;26;20306;-60
2024/04/22 03:54:04;;;;;;;4.63;2.80;;;;;19.80;101338.00;;;;2217630;26;21043;-60
2024/04/22 03:55:05;;;;;;;4.00;2.37;;;;;19.80;101178.00;;;;2221024;26;20294;-60
2024/04/22 03:56:05;;;;;;;3.77;2.53;;;;;19.80;101292.00;;;;2207663;26;20648;-60
2024/04/22 03:57:06;;;;;;;3.97;2.20;;;;;19.80;101332.00;;;;2195616;26;20278;-60
2024/04/22 03:58:06;;;;;;;4.27;2.50;;;;;19.80;101274.00;;;;2209283;26;20319;-60
2024/04/22 03:59:07;;;;;;;4.53;2.90;;;;;19.80;101296.00;;;;2219097;26;20799;-60
2024/04/22 04:00:07;;;;;;;3.40;2.33;;;;;19.80;101388.00;;;;2223101;26;20360;-60
2024/04/22 04:01:08;;;;;;;3.70;2.30;;;;;19.50;101340.00;;;;2200373;26;20299;-65
2024/04/22 04:02:08;;;;;;;3.83;2.43;;;;;19.70;101368.00;;;;2189659;26;20257;-62
2024/04/22 04:03:09;;;;;;;4.73;2.80;;;;;19.70;101336.00;;;;2215757;26;20608;-63
2024/04/22 04:04:09;;;;;;;3.80;2.60;;;;;19.80;101117.00;;;;2214139;26;20251;-60
2024/04/22 04:05:09;;;;;;;5.00;2.80;;;;;19.80;101331.00;;;;2215826;26;20247;-61
2024/04/22 04:06:10;;;;;;;3.93;2.80;;;;;19.80;101155.00;;;;2226706;26;21032;-60
2024/04/22 04:07:10;;;;;;;4.73;2.40;;;;;19.80;101246.00;;;;2212515;26;20255;-60
2024/04/22 04:08:11;;;;;;;4.90;2.83;;;;;19.70;101331.00;;;;2219911;26;20248;-60
2024/04/22 04:09:11;;;;;;;4.77;2.70;;;;;19.70;101315.00;;;;2222159;26;20251;-60
2024/04/22 04:10:11;;;;;;;4.20;2.57;;;;;19.70;101020.00;;;;2193900;26;20257;-60
2024/04/22 04:11:12;;;;;;;5.50;2.90;;;;;19.80;101366.00;;;;2193258;26;20280;-60
2024/04/22 04:12:12;;;;;;;4.73;2.70;;;;;19.80;101052.00;;;;2219386;26;20329;-59
2024/04/22 04:13:13;;;;;;;4.27;2.60;;;;;19.70;101316.00;;;;2221929;26;20296;-60
2024/04/22 04:14:13;;;;;;;3.57;2.20;;;;;19.80;101118.00;;;;2222281;26;20252;-60
2024/04/22 04:15:14;;;;;;;3.80;2.37;;;;;19.70;101324.00;;;;2223908;26;20255;-60
2024/04/22 04:16:14;;;;;;;5.50;2.93;;;;;19.70;101256.00;;;;2220657;26;20693;-60
2024/04/22 04:17:14;;;;;;;3.03;1.90;;;;;19.70;101132.00;;;;2213934;26;20263;-60
2024/04/22 04:18:15;;;;;;;3.93;2.40;;;;;19.70;101065.00;;;;2221485;26;20248;-60
2024/04/22 04:19:15;;;;;;;3.50;2.40;;;;;19.70;101362.00;;;;2223046;26;20422;-60
2024/04/22 04:20:16;;;;;;;4.90;2.73;;;;;19.80;101327.00;;;;2222702;26;20720;-60
2024/04/22 04:21:16;;;;;;;4.23;2.60;;;;;19.80;101233.00;;;;2223400;26;20248;-60
2024/04/22 04:22:16;;;;;;;4.27;2.10;;;;;19.70;101335.00;;;;2213532;26;20255;-60
2024/04/22 04:23:17;;;;;;;3.33;2.10;;;;;19.70;101333.00;;;;2206950;26;20270;-60
2024/04/22 04:24:18;;;;;;;3.70;2.43;;;;;19.70;100961.00;;;;2207425;26;20614;-60
2024/04/22 04:25:18;;;;;;;4.00;2.45;;;;;19.60;101062.00;;;;2223279;26;20323;-59
2024/04/22 04:26:20;;;;;;;4.33;2.40;;;;;19.70;101326.00;;;;2224467;26;20255;-60
2024/04/22 04:27:20;;;;;;;3.40;2.10;;;;;19.70;101328.00;;;;2216137;26;20255;-60
2024/04/22 04:28:20;;;;;;;3.67;2.43;;;;;19.80;101152.00;;;;2219603;26;20250;-60
2024/04/22 04:29:21;;;;;;;3.90;2.60;;;;;19.80;100924.00;;;;2223957;26;20303;-60
2024/04/22 04:30:21;;;;;;;2.90;1.93;;;;;19.70;101336.00;;;;2223468;26;20899;-60
2024/04/22 04:31:22;;;;;;;3.50;1.97;;;;;19.70;101022.00;;;;2226554;26;20306;-60
2024/04/22 04:32:23;;;;;;;4.60;3.13;;;;;19.70;101338.00;;;;2213239;26;21021;-60
2024/04/22 04:33:24;;;;;;;3.95;2.70;;;;;18.50;101335.00;;;;2220804;26;20338;-60
2024/04/22 04:34:24;;;;;;;3.40;2.23;;;;;19.70;101327.00;;;;2222669;26;20679;-60
2024/04/22 04:35:25;;;;;;;3.33;2.20;;;;;19.70;101111.00;;;;2220542;26;20477;-61
2024/04/22 04:36:25;;;;;;;3.77;2.20;;;;;19.70;100918.00;;;;2226628;26;20255;-60
2024/04/22 04:37:26;;;;;;;3.83;2.50;;;;;19.70;101332.00;;;;2214335;26;20783;-59
2024/04/22 04:38:26;;;;;;;4.10;2.40;;;;;19.70;101314.00;;;;2221377;26;20314;-60
2024/04/22 04:39:27;;;;;;;3.77;2.40;;;;;19.70;101158.00;;;;2219745;26;20271;-60
2024/04/22 04:40:27;;;;;;;3.40;1.87;;;;;19.70;101176.00;;;;2211841;26;20260;-60
2024/04/22 04:41:28;;;;;;;3.77;2.00;;;;;19.70;101096.00;;;;2223252;26;20254;-60
2024/04/22 04:42:28;;;;;;;3.70;2.33;;;;;19.70;101314.00;;;;2205241;26;20307;-60
2024/04/22 04:43:29;;;;;;;3.60;2.30;;;;;19.60;101372.00;;;;2222923;26;20282;-60
2024/04/22 04:44:29;;;;;;;3.30;2.30;;;;;19.60;101368.00;;;;2222912;26;20263;-60
2024/04/22 04:45:30;;;;;;;2.93;2.00;;;;;19.70;101148.00;;;;2225474;26;20477;-60
2024/04/22 04:46:30;;;;;;;4.00;2.23;;;;;19.70;101350.00;;;;2223017;26;20254;-60
2024/04/22 04:47:31;;;;;;;4.33;2.30;;;;;19.70;101333.00;;;;2219798;26;20590;-60
2024/04/22 04:48:31;;;;;;;4.07;2.00;;;;;19.70;101295.00;;;;2207776;26;20673;-60
2024/04/22 04:49:31;;;;;;;3.70;2.37;;;;;19.70;101046.00;;;;2205461;26;20745;-60
2024/04/22 04:50:32;;;;;;;4.80;2.70;;;;;19.70;101050.00;;;;2222768;26;20289;-60
2024/04/22 04:51:32;;;;;;;3.47;2.23;;;;;19.70;101342.00;;;;2213798;26;20255;-59
2024/04/22 04:52:33;;;;;;;3.90;2.00;;;;;19.70;101343.00;;;;2223671;26;20251;-60
2024/04/22 04:53:33;;;;;;;3.30;2.10;;;;;19.70;101052.00;;;;2218944;26;20270;-60
2024/04/22 04:54:33;;;;;;;4.73;2.30;;;;;19.70;101061.00;;;;2221731;26;20708;-60
2024/04/22 04:55:34;;;;;;;3.23;2.17;;;;;19.70;101336.00;;;;2224201;26;20301;-60
2024/04/22 04:56:34;;;;;;;3.07;2.00;;;;;19.70;101228.00;;;;2213036;26;20259;-61
2024/04/22 04:57:35;;;;;;;4.10;2.60;;;;;19.70;101332.00;;;;2223233;26;20293;-60
2024/04/22 04:58:35;;;;;;;3.40;2.40;;;;;19.70;101350.00;;;;2215064;26;20274;-60
2024/04/22 04:59:35;;;;;;;4.50;2.60;;;;;19.70;101043.00;;;;2233488;26;20306;-60
2024/04/22 05:00:36;;;;;;;3.37;2.10;;;;;19.70;101295.00;;;;2220223;26;20390;-60
2024/04/22 05:01:36;;;;;;;3.93;2.50;;;;;19.70;101061.00;;;;2208891;26;20354;-60
2024/04/22 05:02:37;;;;;;;4.20;2.30;;;;;19.70;101382.00;;;;2231646;26;20255;-60